sensor_id;sensor_type;location;lat;lon;timestamp;temperature;humidity
52709;DHT22;38606;52.986;6.980;2024-02-15T00:01:23;11.40;99.90
52709;DHT22;38606;52.986;6.980;2024-02-15T00:03:49;11.30;99.90
52709;DHT22;38606;52.986;6.980;2024-02-15T00:06:15;11.50;99.90
52709;DHT22;38606;52.986;6.980;2024-02-15T00:08:40;11.40;99.90
52709;DHT22;38606;52.986;6.980;2024-02-15T00:11:06;11.30;99.90
52709;DHT22;38606;52.986;6.980;2024-02-15T00:13:34;11.40;99.90
52709;DHT22;38606;52.986;6.980;2024-02-15T00:16:01;11.30;99.90
52709;DHT22;38606;52.986;6.980;2024-02-15T00:18:27;11.60;99.90
52709;DHT22;38606;52.986;6.980;2024-02-15T00:20:53;11.30;99.90
52709;DHT22;38606;52.986;6.980;2024-02-15T00:23:18;11.20;99.90
52709;DHT22;38606;52.986;6.980;2024-02-15T00:25:44;11.40;99.90
52709;DHT22;38606;52.986;6.980;2024-02-15T00:28:13;11.40;99.90
52709;DHT22;38606;52.986;6.980;2024-02-15T00:30:39;11.10;99.90
52709;DHT22;38606;52.986;6.980;2024-02-15T00:33:05;11.20;99.90
52709;DHT22;38606;52.986;6.980;2024-02-15T00:35:30;11.30;99.90
52709;DHT22;38606;52.986;6.980;2024-02-15T00:37:56;11.30;99.90
52709;DHT22;38606;52.986;6.980;2024-02-15T00:40:22;11.40;99.90
52709;DHT22;38606;52.986;6.980;2024-02-15T00:42:48;11.50;99.90
52709;DHT22;38606;52.986;6.980;2024-02-15T00:45:14;11.50;99.90
52709;DHT22;38606;52.986;6.980;2024-02-15T00:47:39;11.50;99.90
52709;DHT22;38606;52.986;6.980;2024-02-15T00:50:08;11.40;99.90
52709;DHT22;38606;52.986;6.980;2024-02-15T00:52:34;11.50;99.90
52709;DHT22;38606;52.986;6.980;2024-02-15T00:55:00;11.30;99.90
52709;DHT22;38606;52.986;6.980;2024-02-15T00:57:25;11.50;99.90
52709;DHT22;38606;52.986;6.980;2024-02-15T00:59:51;11.40;99.90
52709;DHT22;38606;52.986;6.980;2024-02-15T01:02:17;11.40;99.90
52709;DHT22;38606;52.986;6.980;2024-02-15T01:04:43;11.40;99.90
52709;DHT22;38606;52.986;6.980;2024-02-15T01:07:11;11.50;99.90
52709;DHT22;38606;52.986;6.980;2024-02-15T01:09:36;11.40;99.90
52709;DHT22;38606;52.986;6.980;2024-02-15T01:12:02;11.30;99.90
52709;DHT22;38606;52.986;6.980;2024-02-15T01:14:29;11.40;99.90
52709;DHT22;38606;52.986;6.980;2024-02-15T01:16:56;11.40;99.90
52709;DHT22;38606;52.986;6.980;2024-02-15T01:19:22;10.80;99.90
52709;DHT22;38606;52.986;6.980;2024-02-15T01:21:48;11.40;99.90
52709;DHT22;38606;52.986;6.980;2024-02-15T01:24:14;11.40;99.90
52709;DHT22;38606;52.986;6.980;2024-02-15T01:26:40;11.50;99.90
52709;DHT22;38606;52.986;6.980;2024-02-15T01:29:05;11.30;99.90
52709;DHT22;38606;52.986;6.980;2024-02-15T01:31:31;11.40;99.90
52709;DHT22;38606;52.986;6.980;2024-02-15T01:33:57;11.40;99.90
52709;DHT22;38606;52.986;6.980;2024-02-15T01:36:22;11.30;99.90
52709;DHT22;38606;52.986;6.980;2024-02-15T01:38:48;11.20;99.90
52709;DHT22;38606;52.986;6.980;2024-02-15T01:41:14;11.30;99.90
52709;DHT22;38606;52.986;6.980;2024-02-15T01:43:49;11.40;99.90
52709;DHT22;38606;52.986;6.980;2024-02-15T01:46:15;11.40;99.90
52709;DHT22;38606;52.986;6.980;2024-02-15T01:48:42;11.30;99.90
52709;DHT22;38606;52.986;6.980;2024-02-15T01:51:10;11.20;99.90
52709;DHT22;38606;52.986;6.980;2024-02-15T01:53:36;11.50;99.90
52709;DHT22;38606;52.986;6.980;2024-02-15T01:56:02;11.10;99.90
52709;DHT22;38606;52.986;6.980;2024-02-15T01:58:29;11.50;99.90
52709;DHT22;38606;52.986;6.980;2024-02-15T02:00:58;11.30;99.90
52709;DHT22;38606;52.986;6.980;2024-02-15T02:03:25;11.30;99.90
52709;DHT22;38606;52.986;6.980;2024-02-15T02:05:50;11.50;99.90
52709;DHT22;38606;52.986;6.980;2024-02-15T02:08:16;11.20;99.90
52709;DHT22;38606;52.986;6.980;2024-02-15T02:10:42;11.30;99.90
52709;DHT22;38606;52.986;6.980;2024-02-15T02:13:09;11.30;99.90
52709;DHT22;38606;52.986;6.980;2024-02-15T02:15:35;11.20;99.90
52709;DHT22;38606;52.986;6.980;2024-02-15T02:18:03;11.30;99.90
52709;DHT22;38606;52.986;6.980;2024-02-15T02:20:32;11.30;99.90
52709;DHT22;38606;52.986;6.980;2024-02-15T02:23:16;11.40;99.90
52709;DHT22;38606;52.986;6.980;2024-02-15T02:25:45;11.30;99.90
52709;DHT22;38606;52.986;6.980;2024-02-15T02:28:15;11.20;99.90
52709;DHT22;38606;52.986;6.980;2024-02-15T02:30:42;11.50;99.90
52709;DHT22;38606;52.986;6.980;2024-02-15T02:33:13;11.20;99.90
52709;DHT22;38606;52.986;6.980;2024-02-15T02:35:47;11.10;99.90
52709;DHT22;38606;52.986;6.980;2024-02-15T02:38:13;11.20;99.90
52709;DHT22;38606;52.986;6.980;2024-02-15T02:40:40;11.10;99.90
52709;DHT22;38606;52.986;6.980;2024-02-15T02:43:06;11.10;99.90
52709;DHT22;38606;52.986;6.980;2024-02-15T02:45:32;11.10;99.90
52709;DHT22;38606;52.986;6.980;2024-02-15T02:47:58;11.20;99.90
52709;DHT22;38606;52.986;6.980;2024-02-15T02:50:24;11.20;99.90
52709;DHT22;38606;52.986;6.980;2024-02-15T02:52:50;11.40;99.90
52709;DHT22;38606;52.986;6.980;2024-02-15T02:55:16;11.30;99.90
52709;DHT22;38606;52.986;6.980;2024-02-15T02:57:42;11.30;99.90
52709;DHT22;38606;52.986;6.980;2024-02-15T03:00:10;11.30;99.90
52709;DHT22;38606;52.986;6.980;2024-02-15T03:02:41;11.10;99.90
52709;DHT22;38606;52.986;6.980;2024-02-15T03:05:08;11.30;99.90
52709;DHT22;38606;52.986;6.980;2024-02-15T03:07:34;11.40;99.90
52709;DHT22;38606;52.986;6.980;2024-02-15T03:10:01;11.30;99.90
52709;DHT22;38606;52.986;6.980;2024-02-15T03:12:30;11.40;99.90
52709;DHT22;38606;52.986;6.980;2024-02-15T03:14:56;11.40;99.90
52709;DHT22;38606;52.986;6.980;2024-02-15T03:17:25;11.30;99.90
52709;DHT22;38606;52.986;6.980;2024-02-15T03:19:51;11.30;99.90
52709;DHT22;38606;52.986;6.980;2024-02-15T03:22:17;11.40;99.90
52709;DHT22;38606;52.986;6.980;2024-02-15T03:24:43;11.50;99.90
52709;DHT22;38606;52.986;6.980;2024-02-15T03:27:09;11.10;99.90
52709;DHT22;38606;52.986;6.980;2024-02-15T03:29:40;11.30;99.90
52709;DHT22;38606;52.986;6.980;2024-02-15T03:32:06;11.40;99.90
52709;DHT22;38606;52.986;6.980;2024-02-15T03:34:32;11.30;99.90
52709;DHT22;38606;52.986;6.980;2024-02-15T03:36:58;11.30;99.90
52709;DHT22;38606;52.986;6.980;2024-02-15T03:39:24;11.40;99.90
52709;DHT22;38606;52.986;6.980;2024-02-15T03:41:50;11.20;99.90
52709;DHT22;38606;52.986;6.980;2024-02-15T03:44:17;11.30;99.90
52709;DHT22;38606;52.986;6.980;2024-02-15T03:46:44;11.30;99.90
52709;DHT22;38606;52.986;6.980;2024-02-15T03:49:16;11.30;99.90
52709;DHT22;38606;52.986;6.980;2024-02-15T03:51:42;11.40;99.90
52709;DHT22;38606;52.986;6.980;2024-02-15T03:54:09;11.30;99.90
52709;DHT22;38606;52.986;6.980;2024-02-15T03:56:35;11.30;99.90
52709;DHT22;38606;52.986;6.980;2024-02-15T03:59:01;11.40;99.90
52709;DHT22;38606;52.986;6.980;2024-02-15T04:01:30;11.40;99.90
52709;DHT22;38606;52.986;6.980;2024-02-15T04:03:59;11.40;99.90
52709;DHT22;38606;52.986;6.980;2024-02-15T04:06:25;11.50;99.90
52709;DHT22;38606;52.986;6.980;2024-02-15T04:08:53;11.30;99.90
52709;DHT22;38606;52.986;6.980;2024-02-15T04:11:19;11.60;99.90
52709;DHT22;38606;52.986;6.980;2024-02-15T04:13:45;11.40;99.90
52709;DHT22;38606;52.986;6.980;2024-02-15T04:16:11;11.50;99.90
52709;DHT22;38606;52.986;6.980;2024-02-15T04:18:36;11.60;99.90
52709;DHT22;38606;52.986;6.980;2024-02-15T04:21:03;11.30;99.90
52709;DHT22;38606;52.986;6.980;2024-02-15T04:23:31;11.30;99.90
52709;DHT22;38606;52.986;6.980;2024-02-15T04:25:57;11.40;99.90
52709;DHT22;38606;52.986;6.980;2024-02-15T04:28:25;11.30;99.90
52709;DHT22;38606;52.986;6.980;2024-02-15T04:30:52;11.40;99.90
52709;DHT22;38606;52.986;6.980;2024-02-15T04:33:18;11.40;99.90
52709;DHT22;38606;52.986;6.980;2024-02-15T04:35:44;12.10;99.90
52709;DHT22;38606;52.986;6.980;2024-02-15T04:38:10;11.50;99.90
52709;DHT22;38606;52.986;6.980;2024-02-15T04:40:36;11.40;99.90
52709;DHT22;38606;52.986;6.980;2024-02-15T04:43:04;11.50;99.90
52709;DHT22;38606;52.986;6.980;2024-02-15T04:45:30;11.50;99.90
52709;DHT22;38606;52.986;6.980;2024-02-15T04:47:56;11.50;99.90
52709;DHT22;38606;52.986;6.980;2024-02-15T04:50:22;11.50;99.90
52709;DHT22;38606;52.986;6.980;2024-02-15T04:52:48;11.50;99.90
52709;DHT22;38606;52.986;6.980;2024-02-15T04:55:15;11.50;99.90
52709;DHT22;38606;52.986;6.980;2024-02-15T04:57:41;11.90;99.90
52709;DHT22;38606;52.986;6.980;2024-02-15T05:00:07;11.50;99.90
52709;DHT22;38606;52.986;6.980;2024-02-15T05:02:38;11.60;99.90
52709;DHT22;38606;52.986;6.980;2024-02-15T05:05:09;11.40;99.90
52709;DHT22;38606;52.986;6.980;2024-02-15T05:07:35;11.40;99.90
52709;DHT22;38606;52.986;6.980;2024-02-15T05:10:03;11.60;99.90
52709;DHT22;38606;52.986;6.980;2024-02-15T05:12:31;11.50;99.90
52709;DHT22;38606;52.986;6.980;2024-02-15T05:14:59;11.50;99.90
52709;DHT22;38606;52.986;6.980;2024-02-15T05:17:24;9.40;99.90
52709;DHT22;38606;52.986;6.980;2024-02-15T05:19:50;11.60;99.90
52709;DHT22;38606;52.986;6.980;2024-02-15T05:22:16;11.50;99.90
52709;DHT22;38606;52.986;6.980;2024-02-15T05:24:42;11.60;99.90
52709;DHT22;38606;52.986;6.980;2024-02-15T05:27:08;11.70;99.90
52709;DHT22;38606;52.986;6.980;2024-02-15T05:29:33;11.50;99.90
52709;DHT22;38606;52.986;6.980;2024-02-15T05:32:00;11.60;99.90
52709;DHT22;38606;52.986;6.980;2024-02-15T05:34:27;11.50;99.90
52709;DHT22;38606;52.986;6.980;2024-02-15T05:36:55;11.80;99.90
52709;DHT22;38606;52.986;6.980;2024-02-15T05:39:20;11.50;99.90
52709;DHT22;38606;52.986;6.980;2024-02-15T05:41:47;11.50;99.90
52709;DHT22;38606;52.986;6.980;2024-02-15T05:44:14;11.50;99.90
52709;DHT22;38606;52.986;6.980;2024-02-15T05:46:44;11.40;99.90
52709;DHT22;38606;52.986;6.980;2024-02-15T05:49:10;11.70;99.90
52709;DHT22;38606;52.986;6.980;2024-02-15T05:51:41;11.50;99.90
52709;DHT22;38606;52.986;6.980;2024-02-15T05:54:07;11.60;99.90
52709;DHT22;38606;52.986;6.980;2024-02-15T05:56:33;11.70;99.90
52709;DHT22;38606;52.986;6.980;2024-02-15T05:58:58;11.60;99.90
52709;DHT22;38606;52.986;6.980;2024-02-15T06:01:24;11.50;99.90
52709;DHT22;38606;52.986;6.980;2024-02-15T06:03:50;11.70;99.90
52709;DHT22;38606;52.986;6.980;2024-02-15T06:06:20;11.70;99.90
52709;DHT22;38606;52.986;6.980;2024-02-15T06:08:47;11.60;99.90
52709;DHT22;38606;52.986;6.980;2024-02-15T06:11:18;11.30;99.90
52709;DHT22;38606;52.986;6.980;2024-02-15T06:13:45;11.70;99.90
52709;DHT22;38606;52.986;6.980;2024-02-15T06:16:11;11.60;99.90
52709;DHT22;38606;52.986;6.980;2024-02-15T06:18:37;11.70;99.90
52709;DHT22;38606;52.986;6.980;2024-02-15T06:21:03;11.40;99.90
52709;DHT22;38606;52.986;6.980;2024-02-15T06:23:29;11.60;99.90
52709;DHT22;38606;52.986;6.980;2024-02-15T06:25:55;11.60;99.90
52709;DHT22;38606;52.986;6.980;2024-02-15T06:28:23;10.40;99.90
52709;DHT22;38606;52.986;6.980;2024-02-15T06:31:08;11.70;99.90
52709;DHT22;38606;52.986;6.980;2024-02-15T06:33:54;11.60;99.90
52709;DHT22;38606;52.986;6.980;2024-02-15T06:36:52;11.70;99.90
52709;DHT22;38606;52.986;6.980;2024-02-15T06:39:36;11.60;99.90
52709;DHT22;38606;52.986;6.980;2024-02-15T06:42:08;11.60;99.90
52709;DHT22;38606;52.986;6.980;2024-02-15T06:44:35;11.60;99.90
52709;DHT22;38606;52.986;6.980;2024-02-15T06:47:01;11.90;99.90
52709;DHT22;38606;52.986;6.980;2024-02-15T06:49:27;11.80;99.90
52709;DHT22;38606;52.986;6.980;2024-02-15T06:51:53;11.70;99.90
52709;DHT22;38606;52.986;6.980;2024-02-15T06:54:19;11.80;99.90
52709;DHT22;38606;52.986;6.980;2024-02-15T06:56:45;11.70;99.90
52709;DHT22;38606;52.986;6.980;2024-02-15T06:59:12;11.50;99.90
52709;DHT22;38606;52.986;6.980;2024-02-15T07:01:43;11.80;99.90
52709;DHT22;38606;52.986;6.980;2024-02-15T07:04:09;11.60;99.90
52709;DHT22;38606;52.986;6.980;2024-02-15T07:06:38;11.50;99.90
52709;DHT22;38606;52.986;6.980;2024-02-15T07:09:07;11.60;99.90
52709;DHT22;38606;52.986;6.980;2024-02-15T07:11:33;11.70;99.90
52709;DHT22;38606;52.986;6.980;2024-02-15T07:14:02;11.80;99.90
52709;DHT22;38606;52.986;6.980;2024-02-15T07:16:30;11.60;99.90
52709;DHT22;38606;52.986;6.980;2024-02-15T07:18:56;11.80;99.90
52709;DHT22;38606;52.986;6.980;2024-02-15T07:21:22;11.80;99.90
52709;DHT22;38606;52.986;6.980;2024-02-15T07:23:53;11.60;99.90
52709;DHT22;38606;52.986;6.980;2024-02-15T07:26:20;11.90;99.90
52709;DHT22;38606;52.986;6.980;2024-02-15T07:28:50;11.80;99.90
52709;DHT22;38606;52.986;6.980;2024-02-15T07:31:18;11.60;99.90
52709;DHT22;38606;52.986;6.980;2024-02-15T07:33:43;12.70;99.90
52709;DHT22;38606;52.986;6.980;2024-02-15T07:36:09;11.60;99.90
52709;DHT22;38606;52.986;6.980;2024-02-15T07:38:35;11.50;99.90
52709;DHT22;38606;52.986;6.980;2024-02-15T07:41:01;11.70;99.90
52709;DHT22;38606;52.986;6.980;2024-02-15T07:43:27;11.80;99.90
52709;DHT22;38606;52.986;6.980;2024-02-15T07:45:53;11.90;99.90
52709;DHT22;38606;52.986;6.980;2024-02-15T07:48:18;11.90;99.90
52709;DHT22;38606;52.986;6.980;2024-02-15T07:50:47;11.80;99.90
52709;DHT22;38606;52.986;6.980;2024-02-15T07:53:13;11.90;99.90
52709;DHT22;38606;52.986;6.980;2024-02-15T07:55:39;11.90;99.90
52709;DHT22;38606;52.986;6.980;2024-02-15T07:58:07;11.70;99.90
52709;DHT22;38606;52.986;6.980;2024-02-15T08:00:33;11.60;99.90
52709;DHT22;38606;52.986;6.980;2024-02-15T08:02:58;11.80;99.90
52709;DHT22;38606;52.986;6.980;2024-02-15T08:05:24;11.60;99.90
52709;DHT22;38606;52.986;6.980;2024-02-15T08:07:50;11.70;99.90
52709;DHT22;38606;52.986;6.980;2024-02-15T08:10:16;11.60;99.90
52709;DHT22;38606;52.986;6.980;2024-02-15T08:12:45;11.90;99.90
52709;DHT22;38606;52.986;6.980;2024-02-15T08:15:12;11.70;99.90
52709;DHT22;38606;52.986;6.980;2024-02-15T08:17:42;11.80;99.90
52709;DHT22;38606;52.986;6.980;2024-02-15T08:20:10;11.80;99.90
52709;DHT22;38606;52.986;6.980;2024-02-15T08:22:37;11.80;99.90
52709;DHT22;38606;52.986;6.980;2024-02-15T08:25:11;12.00;99.90
52709;DHT22;38606;52.986;6.980;2024-02-15T08:27:39;11.90;99.90
52709;DHT22;38606;52.986;6.980;2024-02-15T08:30:12;11.60;99.90
52709;DHT22;38606;52.986;6.980;2024-02-15T08:32:42;12.00;99.90
52709;DHT22;38606;52.986;6.980;2024-02-15T08:35:12;11.80;99.90
52709;DHT22;38606;52.986;6.980;2024-02-15T08:37:39;11.80;99.90
52709;DHT22;38606;52.986;6.980;2024-02-15T08:40:07;11.80;99.90
52709;DHT22;38606;52.986;6.980;2024-02-15T08:42:40;11.80;99.90
52709;DHT22;38606;52.986;6.980;2024-02-15T08:45:07;11.80;99.90
52709;DHT22;38606;52.986;6.980;2024-02-15T08:47:36;11.80;99.90
52709;DHT22;38606;52.986;6.980;2024-02-15T08:50:03;11.80;99.90
52709;DHT22;38606;52.986;6.980;2024-02-15T08:52:29;11.80;99.90
52709;DHT22;38606;52.986;6.980;2024-02-15T08:54:55;11.70;99.90
52709;DHT22;38606;52.986;6.980;2024-02-15T08:57:23;12.00;99.90
52709;DHT22;38606;52.986;6.980;2024-02-15T08:59:49;11.90;99.90
52709;DHT22;38606;52.986;6.980;2024-02-15T09:02:17;12.00;99.90
52709;DHT22;38606;52.986;6.980;2024-02-15T09:04:46;11.70;99.90
52709;DHT22;38606;52.986;6.980;2024-02-15T09:07:12;11.90;99.90
52709;DHT22;38606;52.986;6.980;2024-02-15T09:09:37;12.00;99.90
52709;DHT22;38606;52.986;6.980;2024-02-15T09:12:03;11.90;99.90
52709;DHT22;38606;52.986;6.980;2024-02-15T09:14:34;11.80;99.90
52709;DHT22;38606;52.986;6.980;2024-02-15T09:17:02;11.80;99.90
52709;DHT22;38606;52.986;6.980;2024-02-15T09:19:33;11.90;99.90
52709;DHT22;38606;52.986;6.980;2024-02-15T09:21:59;11.80;99.90
52709;DHT22;38606;52.986;6.980;2024-02-15T09:24:24;11.80;99.90
52709;DHT22;38606;52.986;6.980;2024-02-15T09:26:51;12.10;99.90
52709;DHT22;38606;52.986;6.980;2024-02-15T09:29:18;11.80;99.90
52709;DHT22;38606;52.986;6.980;2024-02-15T09:31:49;11.80;99.90
52709;DHT22;38606;52.986;6.980;2024-02-15T09:34:14;11.90;99.90
52709;DHT22;38606;52.986;6.980;2024-02-15T09:36:40;11.80;99.90
52709;DHT22;38606;52.986;6.980;2024-02-15T09:39:07;12.10;99.90
52709;DHT22;38606;52.986;6.980;2024-02-15T09:41:33;11.90;99.90
52709;DHT22;38606;52.986;6.980;2024-02-15T09:44:01;11.90;99.90
52709;DHT22;38606;52.986;6.980;2024-02-15T09:46:29;11.90;99.90
52709;DHT22;38606;52.986;6.980;2024-02-15T09:49:01;11.90;99.90
52709;DHT22;38606;52.986;6.980;2024-02-15T09:51:29;11.90;99.90
52709;DHT22;38606;52.986;6.980;2024-02-15T09:53:57;11.90;99.90
52709;DHT22;38606;52.986;6.980;2024-02-15T09:56:24;11.80;99.90
52709;DHT22;38606;52.986;6.980;2024-02-15T09:58:51;12.10;99.90
52709;DHT22;38606;52.986;6.980;2024-02-15T10:01:20;11.90;99.90
52709;DHT22;38606;52.986;6.980;2024-02-15T10:03:49;11.90;99.90
52709;DHT22;38606;52.986;6.980;2024-02-15T10:06:17;12.30;99.90
52709;DHT22;38606;52.986;6.980;2024-02-15T10:08:44;12.10;99.90
52709;DHT22;38606;52.986;6.980;2024-02-15T10:11:10;12.30;99.90
52709;DHT22;38606;52.986;6.980;2024-02-15T10:13:36;12.00;99.90
52709;DHT22;38606;52.986;6.980;2024-02-15T10:16:16;12.30;99.90
52709;DHT22;38606;52.986;6.980;2024-02-15T10:18:42;12.10;99.90
52709;DHT22;38606;52.986;6.980;2024-02-15T10:21:08;12.30;99.90
52709;DHT22;38606;52.986;6.980;2024-02-15T10:23:34;12.00;99.90
52709;DHT22;38606;52.986;6.980;2024-02-15T10:26:00;12.30;99.90
52709;DHT22;38606;52.986;6.980;2024-02-15T10:28:27;12.20;99.90
52709;DHT22;38606;52.986;6.980;2024-02-15T10:30:54;12.40;99.90
52709;DHT22;38606;52.986;6.980;2024-02-15T10:33:27;12.30;99.90
52709;DHT22;38606;52.986;6.980;2024-02-15T10:36:06;12.50;99.90
52709;DHT22;38606;52.986;6.980;2024-02-15T10:38:36;12.50;99.90
52709;DHT22;38606;52.986;6.980;2024-02-15T10:41:06;12.20;99.90
52709;DHT22;38606;52.986;6.980;2024-02-15T10:43:36;12.10;99.90
52709;DHT22;38606;52.986;6.980;2024-02-15T10:46:05;12.20;99.90
52709;DHT22;38606;52.986;6.980;2024-02-15T10:48:35;12.30;99.90
52709;DHT22;38606;52.986;6.980;2024-02-15T10:51:03;12.20;99.90
52709;DHT22;38606;52.986;6.980;2024-02-15T10:53:35;12.00;99.90
52709;DHT22;38606;52.986;6.980;2024-02-15T10:56:11;12.30;99.90
52709;DHT22;38606;52.986;6.980;2024-02-15T10:58:49;12.20;99.90
52709;DHT22;38606;52.986;6.980;2024-02-15T11:01:17;12.50;99.90
52709;DHT22;38606;52.986;6.980;2024-02-15T11:03:59;12.30;99.90
52709;DHT22;38606;52.986;6.980;2024-02-15T11:06:30;12.40;99.90
52709;DHT22;38606;52.986;6.980;2024-02-15T11:08:59;12.60;99.90
52709;DHT22;38606;52.986;6.980;2024-02-15T11:11:25;12.50;99.90
52709;DHT22;38606;52.986;6.980;2024-02-15T11:14:25;12.50;99.90
52709;DHT22;38606;52.986;6.980;2024-02-15T11:16:50;12.60;99.90
52709;DHT22;38606;52.986;6.980;2024-02-15T11:22:01;12.60;99.90
52709;DHT22;38606;52.986;6.980;2024-02-15T11:24:32;12.50;99.90
52709;DHT22;38606;52.986;6.980;2024-02-15T11:27:02;12.60;99.90
52709;DHT22;38606;52.986;6.980;2024-02-15T11:32:35;12.60;99.90
52709;DHT22;38606;52.986;6.980;2024-02-15T11:35:12;12.90;99.90
52709;DHT22;38606;52.986;6.980;2024-02-15T12:48:08;13.00;99.90
52709;DHT22;38606;52.986;6.980;2024-02-15T12:50:35;13.10;99.90
52709;DHT22;38606;52.986;6.980;2024-02-15T12:53:00;12.80;99.90
52709;DHT22;38606;52.986;6.980;2024-02-15T12:55:35;12.90;99.90
52709;DHT22;38606;52.986;6.980;2024-02-15T12:58:06;12.80;99.90
52709;DHT22;38606;52.986;6.980;2024-02-15T13:00:36;12.80;99.90
52709;DHT22;38606;52.986;6.980;2024-02-15T13:03:05;12.90;99.90
52709;DHT22;38606;52.986;6.980;2024-02-15T13:05:34;12.80;99.90
52709;DHT22;38606;52.986;6.980;2024-02-15T13:08:02;12.80;99.90
52709;DHT22;38606;52.986;6.980;2024-02-15T13:10:28;12.70;99.90
52709;DHT22;38606;52.986;6.980;2024-02-15T13:12:55;12.70;99.90
52709;DHT22;38606;52.986;6.980;2024-02-15T13:15:22;12.50;99.90
52709;DHT22;38606;52.986;6.980;2024-02-15T13:17:53;12.80;99.90
52709;DHT22;38606;52.986;6.980;2024-02-15T13:20:20;12.90;99.90
52709;DHT22;38606;52.986;6.980;2024-02-15T13:22:52;12.50;99.90
52709;DHT22;38606;52.986;6.980;2024-02-15T13:25:19;12.80;99.90
52709;DHT22;38606;52.986;6.980;2024-02-15T13:27:47;12.60;99.90
52709;DHT22;38606;52.986;6.980;2024-02-15T13:30:13;12.70;99.90
52709;DHT22;38606;52.986;6.980;2024-02-15T13:32:39;12.60;99.90
52709;DHT22;38606;52.986;6.980;2024-02-15T13:35:10;12.70;99.90
52709;DHT22;38606;52.986;6.980;2024-02-15T13:37:47;12.50;99.90
52709;DHT22;38606;52.986;6.980;2024-02-15T13:40:14;12.80;99.90
52709;DHT22;38606;52.986;6.980;2024-02-15T13:42:46;12.80;99.90
52709;DHT22;38606;52.986;6.980;2024-02-15T13:45:22;12.90;99.90
52709;DHT22;38606;52.986;6.980;2024-02-15T13:47:49;12.80;99.90
52709;DHT22;38606;52.986;6.980;2024-02-15T13:50:16;12.80;99.90
52709;DHT22;38606;52.986;6.980;2024-02-15T13:52:43;12.60;99.90
52709;DHT22;38606;52.986;6.980;2024-02-15T13:55:17;12.70;99.90
52709;DHT22;38606;52.986;6.980;2024-02-15T13:57:45;12.70;99.90
52709;DHT22;38606;52.986;6.980;2024-02-15T14:00:16;12.70;99.90
52709;DHT22;38606;52.986;6.980;2024-02-15T14:02:52;12.80;99.90
52709;DHT22;38606;52.986;6.980;2024-02-15T14:05:19;12.50;99.90
52709;DHT22;38606;52.986;6.980;2024-02-15T14:07:49;12.70;99.90
52709;DHT22;38606;52.986;6.980;2024-02-15T14:10:16;12.70;99.90
52709;DHT22;38606;52.986;6.980;2024-02-15T14:12:45;12.80;99.90
52709;DHT22;38606;52.986;6.980;2024-02-15T14:15:11;12.70;99.90
52709;DHT22;38606;52.986;6.980;2024-02-15T14:17:37;12.70;99.90
52709;DHT22;38606;52.986;6.980;2024-02-15T14:20:04;12.40;99.90
52709;DHT22;38606;52.986;6.980;2024-02-15T14:22:34;12.70;99.90
52709;DHT22;38606;52.986;6.980;2024-02-15T14:25:01;12.60;99.90
52709;DHT22;38606;52.986;6.980;2024-02-15T14:27:26;12.80;99.90
52709;DHT22;38606;52.986;6.980;2024-02-15T14:29:52;12.50;99.90
52709;DHT22;38606;52.986;6.980;2024-02-15T14:32:36;12.60;99.90
52709;DHT22;38606;52.986;6.980;2024-02-15T14:35:20;12.70;99.90
52709;DHT22;38606;52.986;6.980;2024-02-15T14:37:47;12.70;99.90
52709;DHT22;38606;52.986;6.980;2024-02-15T14:40:13;12.60;99.90
52709;DHT22;38606;52.986;6.980;2024-02-15T14:42:42;12.40;99.90
52709;DHT22;38606;52.986;6.980;2024-02-15T14:45:11;12.50;99.90
52709;DHT22;38606;52.986;6.980;2024-02-15T14:47:38;12.80;99.90
52709;DHT22;38606;52.986;6.980;2024-02-15T14:50:04;12.80;99.90
52709;DHT22;38606;52.986;6.980;2024-02-15T14:52:37;12.60;99.90
52709;DHT22;38606;52.986;6.980;2024-02-15T14:55:06;12.70;99.90
52709;DHT22;38606;52.986;6.980;2024-02-15T14:57:36;12.70;99.90
52709;DHT22;38606;52.986;6.980;2024-02-15T15:00:05;11.40;99.90
52709;DHT22;38606;52.986;6.980;2024-02-15T15:02:37;13.00;99.90
52709;DHT22;38606;52.986;6.980;2024-02-15T15:05:02;12.60;99.90
52709;DHT22;38606;52.986;6.980;2024-02-15T15:07:47;12.60;99.90
52709;DHT22;38606;52.986;6.980;2024-02-15T15:10:31;12.60;99.90
52709;DHT22;38606;52.986;6.980;2024-02-15T15:13:16;12.50;99.90
52709;DHT22;38606;52.986;6.980;2024-02-15T15:15:43;12.70;99.90
52709;DHT22;38606;52.986;6.980;2024-02-15T15:18:08;12.70;99.90
52709;DHT22;38606;52.986;6.980;2024-02-15T15:20:35;12.80;99.90
52709;DHT22;38606;52.986;6.980;2024-02-15T15:23:02;12.70;99.90
52709;DHT22;38606;52.986;6.980;2024-02-15T15:25:27;12.70;99.90
52709;DHT22;38606;52.986;6.980;2024-02-15T15:27:54;12.80;99.90
52709;DHT22;38606;52.986;6.980;2024-02-15T15:30:21;12.80;99.90
52709;DHT22;38606;52.986;6.980;2024-02-15T15:32:48;12.90;99.90
52709;DHT22;38606;52.986;6.980;2024-02-15T15:35:16;12.70;99.90
52709;DHT22;38606;52.986;6.980;2024-02-15T15:37:46;12.70;99.90
52709;DHT22;38606;52.986;6.980;2024-02-15T15:40:13;12.50;99.90
52709;DHT22;38606;52.986;6.980;2024-02-15T15:42:42;12.90;99.90
52709;DHT22;38606;52.986;6.980;2024-02-15T15:45:09;12.90;99.90
52709;DHT22;38606;52.986;6.980;2024-02-15T15:47:36;12.70;99.90
52709;DHT22;38606;52.986;6.980;2024-02-15T15:50:01;12.80;99.90
52709;DHT22;38606;52.986;6.980;2024-02-15T15:52:27;12.90;99.90
52709;DHT22;38606;52.986;6.980;2024-02-15T15:54:53;12.90;99.90
52709;DHT22;38606;52.986;6.980;2024-02-15T15:57:19;12.90;99.90
52709;DHT22;38606;52.986;6.980;2024-02-15T15:59:46;12.90;99.90
52709;DHT22;38606;52.986;6.980;2024-02-15T16:02:14;12.60;99.90
52709;DHT22;38606;52.986;6.980;2024-02-15T16:04:46;12.70;99.90
52709;DHT22;38606;52.986;6.980;2024-02-15T16:07:15;12.70;99.90
52709;DHT22;38606;52.986;6.980;2024-02-15T16:09:41;12.70;99.90
52709;DHT22;38606;52.986;6.980;2024-02-15T16:12:13;12.70;99.90
52709;DHT22;38606;52.986;6.980;2024-02-15T16:14:41;12.70;99.90
52709;DHT22;38606;52.986;6.980;2024-02-15T16:17:11;12.70;99.90
52709;DHT22;38606;52.986;6.980;2024-02-15T16:19:36;12.50;99.90
52709;DHT22;38606;52.986;6.980;2024-02-15T16:22:02;12.20;99.90
52709;DHT22;38606;52.986;6.980;2024-02-15T16:24:28;12.60;99.90
52709;DHT22;38606;52.986;6.980;2024-02-15T16:26:55;12.70;99.90
52709;DHT22;38606;52.986;6.980;2024-02-15T16:29:21;12.60;99.90
52709;DHT22;38606;52.986;6.980;2024-02-15T16:31:47;12.60;99.90
52709;DHT22;38606;52.986;6.980;2024-02-15T16:34:13;12.60;99.90
52709;DHT22;38606;52.986;6.980;2024-02-15T16:36:39;12.50;99.90
52709;DHT22;38606;52.986;6.980;2024-02-15T16:39:05;12.40;99.90
52709;DHT22;38606;52.986;6.980;2024-02-15T16:41:33;12.50;99.90
52709;DHT22;38606;52.986;6.980;2024-02-15T16:43:58;12.50;99.90
52709;DHT22;38606;52.986;6.980;2024-02-15T16:46:25;12.70;99.90
52709;DHT22;38606;52.986;6.980;2024-02-15T16:48:51;12.50;99.90
52709;DHT22;38606;52.986;6.980;2024-02-15T16:51:20;12.40;99.90